createdAt,value
2017-07-02T00:01:16.634Z,13.50
2017-07-02T00:03:44.096Z,13.50
2017-07-02T00:06:12.420Z,13.50
2017-07-02T00:08:39.887Z,13.50
2017-07-02T00:11:07.366Z,13.50
2017-07-02T00:13:34.870Z,13.50
2017-07-02T00:16:02.345Z,13.60
2017-07-02T00:18:29.835Z,13.60
2017-07-02T00:20:57.334Z,13.40
2017-07-02T00:23:25.605Z,13.60
2017-07-02T00:25:53.871Z,13.50
2017-07-02T00:28:21.342Z,13.50
2017-07-02T00:30:49.622Z,13.40
2017-07-02T00:33:17.861Z,13.50
2017-07-02T00:35:45.324Z,13.50
2017-07-02T00:38:12.825Z,13.50
2017-07-02T00:40:40.303Z,13.40
2017-07-02T00:43:07.792Z,13.30
2017-07-02T00:45:35.269Z,13.40
2017-07-02T00:48:02.760Z,13.30
2017-07-02T00:50:30.256Z,13.30
2017-07-02T00:52:57.736Z,13.30
2017-07-02T00:55:26.025Z,13.30
2017-07-02T00:57:54.264Z,13.30
2017-07-02T01:00:21.752Z,13.30
2017-07-02T01:02:49.221Z,13.30
2017-07-02T01:05:17.459Z,13.20
2017-07-02T01:07:44.946Z,13.20
2017-07-02T01:10:12.433Z,13.20
2017-07-02T01:12:39.932Z,13.20
2017-07-02T01:15:07.402Z,13.20
2017-07-02T01:17:34.873Z,13.20
2017-07-02T01:20:02.391Z,13.20
2017-07-02T01:22:29.880Z,13.20
2017-07-02T01:24:57.350Z,13.10
2017-07-02T01:27:24.845Z,13.10
2017-07-02T01:29:52.332Z,13.10
2017-07-02T01:32:19.795Z,13.10
2017-07-02T01:34:47.284Z,13.10
2017-07-02T01:37:14.761Z,13.20
2017-07-02T01:39:43.073Z,13.20
2017-07-02T01:42:10.567Z,13.10
2017-07-02T01:44:38.044Z,13.10
2017-07-02T01:47:06.292Z,13.20
2017-07-02T01:49:33.788Z,13.20
2017-07-02T01:52:02.051Z,13.20
2017-07-02T01:54:29.585Z,13.20
2017-07-02T01:56:57.066Z,13.20
2017-07-02T01:59:24.541Z,13.20
2017-07-02T02:02:04.668Z,13.20
2017-07-02T02:04:32.140Z,13.20
2017-07-02T02:06:59.630Z,13.20
2017-07-02T02:09:27.108Z,13.40
2017-07-02T02:11:54.568Z,13.30
2017-07-02T02:14:22.077Z,13.20
2017-07-02T02:16:50.316Z,13.30
2017-07-02T02:19:19.517Z,13.30
2017-07-02T02:21:47.012Z,13.30
2017-07-02T02:24:15.281Z,13.10
2017-07-02T02:26:42.761Z,13.10
2017-07-02T02:29:10.246Z,13.20
2017-07-02T02:31:37.729Z,13.20
2017-07-02T02:34:05.220Z,13.10
2017-07-02T02:36:33.464Z,13.10
2017-07-02T02:39:00.952Z,13.10
2017-07-02T02:41:29.197Z,13.10
2017-07-02T02:43:56.705Z,13.10
2017-07-02T02:46:24.957Z,13.10
2017-07-02T02:48:52.435Z,13.10
2017-07-02T02:51:20.693Z,13.00
2017-07-02T02:53:48.199Z,13.00
2017-07-02T02:56:15.688Z,13.00
2017-07-02T02:58:43.156Z,13.00
2017-07-02T03:01:10.624Z,13.00
2017-07-02T03:03:38.883Z,13.10
2017-07-02T03:06:06.384Z,13.10
2017-07-02T03:08:34.454Z,13.20
2017-07-02T03:11:02.704Z,13.20
2017-07-02T03:13:31.703Z,13.10
2017-07-02T03:15:59.962Z,13.10
2017-07-02T03:18:27.432Z,13.10
2017-07-02T03:20:54.905Z,13.10
2017-07-02T03:23:24.644Z,13.10
2017-07-02T03:25:52.111Z,13.10
2017-07-02T03:28:20.579Z,13.20
2017-07-02T03:30:48.091Z,13.10
2017-07-02T03:33:15.580Z,13.10
2017-07-02T03:35:43.047Z,13.20
2017-07-02T03:38:10.709Z,13.20
2017-07-02T03:40:38.187Z,13.20
2017-07-02T03:43:05.677Z,13.20
2017-07-02T03:45:33.148Z,13.20
2017-07-02T03:48:00.644Z,13.20
2017-07-02T03:50:28.245Z,13.30
2017-07-02T03:52:55.731Z,13.30
2017-07-02T03:55:24.540Z,13.40
2017-07-02T03:57:52.056Z,13.40
2017-07-02T04:00:19.529Z,13.40
2017-07-02T04:02:47.041Z,13.40
2017-07-02T04:05:15.057Z,13.40
2017-07-02T04:07:42.540Z,13.40
2017-07-02T04:10:10.792Z,13.40
2017-07-02T04:12:38.268Z,13.40
2017-07-02T04:15:06.525Z,13.60
2017-07-02T04:17:34.021Z,13.50
2017-07-02T04:20:02.038Z,13.60
2017-07-02T04:22:29.524Z,13.50
2017-07-02T04:24:57.775Z,13.50
2017-07-02T04:27:25.268Z,13.50
2017-07-02T04:29:52.749Z,13.50
2017-07-02T04:32:20.225Z,13.50
2017-07-02T04:34:47.718Z,13.50
2017-07-02T04:37:15.188Z,13.60
2017-07-02T04:39:43.861Z,13.70
2017-07-02T04:42:11.340Z,13.70
2017-07-02T04:44:39.596Z,13.80
2017-07-02T04:47:07.587Z,13.70
2017-07-02T04:49:35.849Z,13.90
2017-07-02T04:52:04.178Z,13.90
2017-07-02T04:54:31.646Z,13.90
2017-07-02T04:56:59.137Z,14.00
2017-07-02T04:59:26.643Z,13.90
2017-07-02T05:01:54.124Z,14.00
2017-07-02T05:04:21.647Z,14.00
2017-07-02T05:06:49.125Z,14.00
2017-07-02T05:09:16.641Z,14.00
2017-07-02T05:11:44.104Z,14.10
2017-07-02T05:14:12.401Z,14.30
2017-07-02T05:16:39.888Z,14.30
2017-07-02T05:19:07.369Z,14.40
2017-07-02T05:21:34.869Z,14.40
2017-07-02T05:24:02.361Z,14.40
2017-07-02T05:26:29.841Z,14.50
2017-07-02T05:28:57.345Z,14.50
2017-07-02T05:31:24.832Z,14.60
2017-07-02T05:33:52.328Z,14.60
2017-07-02T05:36:19.814Z,14.70
2017-07-02T05:38:47.332Z,14.70
2017-07-02T05:41:14.862Z,14.70
2017-07-02T05:43:42.396Z,14.70
2017-07-02T05:46:09.895Z,14.70
2017-07-02T05:48:37.383Z,14.80
2017-07-02T05:51:04.885Z,14.80
2017-07-02T05:53:32.396Z,14.80
2017-07-02T05:55:59.901Z,14.80
2017-07-02T05:58:27.392Z,14.90
2017-07-02T06:00:54.892Z,14.90
2017-07-02T06:03:23.149Z,15.00
2017-07-02T06:05:50.659Z,15.00
2017-07-02T06:08:18.141Z,15.10
2017-07-02T06:10:45.655Z,15.10
2017-07-02T06:13:13.138Z,15.10
2017-07-02T06:15:40.635Z,15.10
2017-07-02T06:18:08.141Z,15.10
2017-07-02T06:20:35.629Z,15.10
2017-07-02T06:23:03.107Z,15.10
2017-07-02T06:25:30.629Z,15.20
2017-07-02T06:27:58.109Z,15.20
2017-07-02T06:30:25.612Z,15.30
2017-07-02T06:32:53.890Z,15.50
2017-07-02T06:35:22.161Z,15.50
2017-07-02T06:37:50.411Z,15.70
2017-07-02T06:40:17.917Z,15.70
2017-07-02T06:42:45.405Z,15.80
2017-07-02T06:45:12.928Z,15.80
2017-07-02T06:47:40.414Z,15.90
2017-07-02T06:50:07.927Z,15.90
2017-07-02T06:52:36.193Z,16.10
2017-07-02T06:55:03.674Z,16.10
2017-07-02T06:57:31.178Z,16.20
2017-07-02T06:59:58.674Z,16.30
2017-07-02T07:02:26.171Z,16.30
2017-07-02T07:04:53.653Z,16.50
2017-07-02T07:07:21.172Z,16.60
2017-07-02T07:09:49.444Z,16.90
2017-07-02T07:12:17.725Z,17.00
2017-07-02T07:14:45.243Z,16.90
2017-07-02T07:17:12.717Z,17.10
2017-07-02T07:19:40.997Z,17.20
2017-07-02T07:22:09.254Z,17.50
2017-07-02T07:24:36.745Z,17.50
2017-07-02T07:27:05.049Z,18.00
2017-07-02T07:29:32.524Z,18.00
2017-07-02T07:32:00.033Z,18.20
2017-07-02T07:34:28.296Z,18.40
2017-07-02T07:36:56.568Z,18.30
2017-07-02T07:39:24.082Z,18.30
2017-07-02T07:41:51.567Z,18.20
2017-07-02T07:44:19.078Z,18.20
2017-07-02T07:46:46.570Z,18.10
2017-07-02T07:49:14.074Z,17.80
2017-07-02T07:51:42.324Z,17.80
2017-07-02T07:54:09.840Z,17.80
2017-07-02T07:56:37.332Z,17.80
2017-07-02T07:59:04.817Z,18.00
2017-07-02T08:01:32.325Z,18.10
2017-07-02T08:03:59.812Z,18.10
2017-07-02T08:06:27.324Z,18.20
2017-07-02T08:08:54.812Z,18.30
2017-07-02T08:11:22.291Z,18.40
2017-07-02T08:13:49.804Z,18.60
2017-07-02T08:16:17.300Z,18.70
2017-07-02T08:18:45.061Z,18.70
2017-07-02T08:21:12.572Z,18.70
2017-07-02T08:23:40.059Z,18.80
2017-07-02T08:26:07.558Z,18.80
2017-07-02T08:28:35.038Z,18.70
2017-07-02T08:31:03.326Z,18.50
2017-07-02T08:33:30.812Z,18.50
2017-07-02T08:35:58.305Z,18.70
2017-07-02T08:38:25.811Z,18.60
2017-07-02T08:40:53.297Z,18.80
2017-07-02T08:43:20.810Z,18.70
2017-07-02T08:45:49.062Z,18.30
2017-07-02T08:48:17.327Z,18.30
2017-07-02T08:50:44.821Z,18.00
2017-07-02T08:53:12.325Z,17.70
2017-07-02T08:55:39.840Z,17.50
2017-07-02T08:58:07.321Z,17.40
2017-07-02T09:00:34.805Z,17.50
2017-07-02T09:03:02.317Z,17.70
2017-07-02T09:05:29.801Z,17.80
2017-07-02T09:07:57.321Z,17.90
2017-07-02T09:10:25.568Z,17.80
2017-07-02T09:12:53.055Z,17.70
2017-07-02T09:15:21.728Z,17.80
2017-07-02T09:17:49.570Z,17.70
2017-07-02T09:20:17.108Z,17.80
2017-07-02T09:22:44.588Z,17.80
2017-07-02T09:25:12.083Z,17.60
2017-07-02T09:27:40.331Z,17.40
2017-07-02T09:30:07.815Z,17.40
2017-07-02T09:32:36.069Z,17.40
2017-07-02T09:35:03.557Z,17.40
2017-07-02T09:37:31.072Z,17.60
2017-07-02T09:39:58.602Z,17.80
2017-07-02T09:42:26.078Z,17.70
2017-07-02T09:44:53.588Z,17.80
2017-07-02T09:47:21.836Z,17.90
2017-07-02T09:49:49.357Z,17.80
2017-07-02T09:52:16.842Z,17.90
2017-07-02T09:54:44.334Z,18.00
2017-07-02T09:57:12.572Z,18.20
2017-07-02T09:59:40.055Z,18.20
2017-07-02T10:02:07.564Z,18.40
2017-07-02T10:04:35.417Z,18.60
2017-07-02T10:07:03.668Z,18.70
2017-07-02T10:09:32.264Z,18.60
2017-07-02T10:12:00.996Z,18.40
2017-07-02T10:14:28.489Z,18.40
2017-07-02T10:16:55.999Z,18.40
2017-07-02T10:19:23.504Z,18.20
2017-07-02T10:21:50.984Z,18.30
2017-07-02T10:24:19.278Z,18.40
2017-07-02T10:26:47.096Z,18.40
2017-07-02T10:29:14.633Z,18.50
2017-07-02T10:31:42.177Z,18.50
2017-07-02T10:34:09.664Z,18.50
2017-07-02T10:36:37.215Z,18.80
2017-07-02T10:39:04.696Z,19.10
2017-07-02T10:41:32.218Z,19.50
2017-07-02T10:43:59.702Z,20.00
2017-07-02T10:46:27.221Z,20.60
2017-07-02T10:48:54.716Z,21.20
2017-07-02T10:51:22.233Z,21.30
2017-07-02T10:53:49.734Z,21.90
2017-07-02T10:56:17.244Z,22.50
2017-07-02T10:58:44.742Z,22.90
2017-07-02T11:01:12.985Z,25.50
2017-07-02T11:03:40.444Z,25.40
2017-07-02T11:06:07.950Z,25.40
2017-07-02T11:08:35.466Z,25.70
2017-07-02T11:11:02.955Z,23.50
2017-07-02T11:13:31.196Z,20.90
2017-07-02T11:15:58.666Z,20.90
2017-07-02T11:18:26.159Z,20.40
2017-07-02T11:20:53.649Z,19.70
2017-07-02T11:23:21.141Z,19.40
2017-07-02T11:25:48.626Z,19.40
2017-07-02T11:28:16.888Z,19.40
2017-07-02T11:30:45.145Z,19.40
2017-07-02T11:33:12.612Z,19.30
2017-07-02T11:35:40.108Z,19.30
2017-07-02T11:38:07.605Z,19.30
2017-07-02T11:40:35.115Z,19.30
2017-07-02T11:43:04.337Z,19.40
2017-07-02T11:45:31.850Z,19.40
2017-07-02T11:48:00.091Z,19.70
2017-07-02T11:50:27.577Z,19.70
2017-07-02T11:52:55.081Z,19.70
2017-07-02T11:55:22.608Z,19.90
2017-07-02T11:57:50.886Z,20.50
2017-07-02T12:00:19.137Z,20.60
2017-07-02T12:02:46.633Z,20.50
2017-07-02T12:05:14.104Z,20.60
2017-07-02T12:07:41.581Z,21.00
2017-07-02T12:10:09.077Z,21.80
2017-07-02T12:12:36.548Z,22.50
2017-07-02T12:15:04.835Z,23.30
2017-07-02T12:17:33.144Z,23.60
2017-07-02T12:20:00.625Z,23.60
2017-07-02T12:22:28.118Z,23.80
2017-07-02T12:24:56.392Z,23.10
2017-07-02T12:27:24.640Z,22.90
2017-07-02T12:29:52.173Z,22.90
2017-07-02T12:32:19.666Z,22.60
2017-07-02T12:34:47.191Z,21.90
2017-07-02T12:37:14.709Z,21.60
2017-07-02T12:39:42.961Z,20.10
2017-07-02T12:42:10.442Z,20.10
2017-07-02T12:44:38.767Z,20.00
2017-07-02T12:47:06.244Z,20.00
2017-07-02T12:49:33.776Z,20.20
2017-07-02T12:52:01.251Z,20.30
2017-07-02T12:54:28.752Z,20.30
2017-07-02T12:56:57.074Z,20.20
2017-07-02T12:59:24.550Z,20.20
2017-07-02T13:01:52.088Z,20.00
2017-07-02T13:04:19.559Z,20.00
2017-07-02T13:06:47.105Z,20.00
2017-07-02T13:09:14.587Z,20.00
2017-07-02T13:11:42.226Z,20.10
2017-07-02T13:14:09.704Z,19.90
2017-07-02T13:16:37.189Z,19.70
2017-07-02T13:19:05.494Z,19.70
2017-07-02T13:21:33.754Z,19.70
2017-07-02T13:24:02.010Z,19.60
2017-07-02T13:26:31.653Z,19.70
2017-07-02T13:28:59.130Z,19.40
2017-07-02T13:31:26.639Z,19.30
2017-07-02T13:33:54.115Z,19.10
2017-07-02T13:36:21.632Z,19.00
2017-07-02T13:38:49.126Z,18.90
2017-07-02T13:41:16.600Z,18.80
2017-07-02T13:43:44.092Z,18.60
2017-07-02T13:46:12.348Z,18.50
2017-07-02T13:48:39.859Z,18.50
2017-07-02T13:51:07.357Z,18.50
2017-07-02T13:53:34.857Z,18.20
2017-07-02T13:56:02.345Z,18.20
2017-07-02T13:58:29.832Z,18.00
2017-07-02T14:00:57.363Z,17.90
2017-07-02T14:03:24.849Z,17.80
2017-07-02T14:05:52.375Z,17.80
2017-07-02T14:08:19.845Z,17.70
2017-07-02T14:10:47.359Z,17.70
2017-07-02T14:13:15.605Z,17.90
2017-07-02T14:15:43.125Z,17.90
2017-07-02T14:18:10.606Z,17.80
2017-07-02T14:20:38.114Z,17.90
2017-07-02T14:23:05.602Z,17.90
2017-07-02T14:25:33.086Z,17.90
2017-07-02T14:28:00.575Z,17.80
2017-07-02T14:30:28.809Z,17.90
2017-07-02T14:32:56.322Z,17.90
2017-07-02T14:35:24.565Z,18.00
2017-07-02T14:37:52.201Z,18.00
2017-07-02T14:40:19.695Z,17.90
2017-07-02T14:42:47.204Z,17.90
2017-07-02T14:45:14.695Z,17.90
2017-07-02T14:47:42.180Z,17.80
2017-07-02T14:50:10.425Z,17.80
2017-07-02T14:52:37.931Z,17.80
2017-07-02T14:55:05.398Z,17.80
2017-07-02T14:57:32.860Z,17.80
2017-07-02T15:00:00.364Z,17.80
2017-07-02T15:02:27.865Z,17.90
2017-07-02T15:04:55.395Z,17.90
2017-07-02T15:07:22.869Z,18.10
2017-07-02T15:09:50.366Z,18.00
2017-07-02T15:12:17.870Z,17.90
2017-07-02T15:14:45.375Z,17.70
2017-07-02T15:17:12.888Z,17.50
2017-07-02T15:19:40.380Z,17.40
2017-07-02T15:22:07.868Z,17.30
2017-07-02T15:24:36.108Z,17.10
2017-07-02T15:27:03.648Z,17.10
2017-07-02T15:29:31.133Z,16.90
2017-07-02T15:31:58.612Z,16.80
2017-07-02T15:34:26.893Z,16.70
2017-07-02T15:36:55.149Z,16.60
2017-07-02T15:39:22.660Z,16.60
2017-07-02T15:41:50.153Z,16.70
2017-07-02T15:44:17.642Z,16.70
2017-07-02T15:46:45.915Z,16.60
2017-07-02T15:49:14.168Z,16.50
2017-07-02T15:51:41.666Z,16.50
2017-07-02T15:54:09.157Z,16.50
2017-07-02T15:56:36.669Z,16.60
2017-07-02T15:59:04.919Z,16.50
2017-07-02T16:01:32.445Z,16.50
2017-07-02T16:03:59.961Z,16.60
2017-07-02T16:06:28.395Z,16.40
2017-07-02T16:08:57.601Z,16.40
2017-07-02T16:11:26.171Z,16.40
2017-07-02T16:13:54.274Z,16.50
2017-07-02T16:16:21.991Z,16.40
2017-07-02T16:18:51.775Z,16.40
2017-07-02T16:21:21.620Z,16.40
2017-07-02T16:23:50.318Z,16.50
2017-07-02T16:26:18.521Z,16.40
2017-07-02T16:28:46.043Z,16.40
2017-07-02T16:31:13.511Z,16.50
2017-07-02T16:33:41.010Z,16.50
2017-07-02T16:36:08.493Z,16.50
2017-07-02T16:38:36.001Z,16.60
2017-07-02T16:41:04.246Z,17.00
2017-07-02T16:43:31.743Z,17.00
2017-07-02T16:46:00.017Z,17.00
2017-07-02T16:48:28.293Z,17.00
2017-07-02T16:50:56.556Z,16.90
2017-07-02T16:53:24.037Z,16.90
2017-07-02T16:55:52.308Z,17.00
2017-07-02T16:58:20.560Z,17.00
2017-07-02T17:00:48.036Z,17.00
2017-07-02T17:03:15.560Z,17.00
2017-07-02T17:05:43.042Z,17.00
2017-07-02T17:08:10.533Z,17.10
2017-07-02T17:10:38.026Z,17.10
2017-07-02T17:13:05.538Z,17.10
2017-07-02T17:15:33.780Z,17.00
2017-07-02T17:18:01.254Z,17.00
2017-07-02T17:20:28.749Z,16.80
2017-07-02T17:22:56.269Z,16.80
2017-07-02T17:25:23.760Z,16.80
2017-07-02T17:27:51.248Z,16.70
2017-07-02T17:30:18.748Z,16.70
2017-07-02T17:32:46.252Z,16.70
2017-07-02T17:35:13.732Z,16.70
2017-07-02T17:37:41.244Z,16.80
2017-07-02T17:40:09.502Z,16.80
2017-07-02T17:42:37.021Z,16.80
2017-07-02T17:45:04.513Z,16.80
2017-07-02T17:47:31.993Z,16.80
2017-07-02T17:50:00.249Z,16.80
2017-07-02T17:52:27.748Z,16.80
2017-07-02T17:54:55.258Z,16.70
2017-07-02T17:57:22.886Z,16.80
2017-07-02T17:59:50.362Z,16.70
2017-07-02T18:02:17.861Z,16.70
2017-07-02T18:04:46.113Z,16.50
2017-07-02T18:07:13.637Z,16.50
2017-07-02T18:09:41.119Z,16.50
2017-07-02T18:12:08.625Z,16.50
2017-07-02T18:14:36.867Z,16.50
2017-07-02T18:17:04.357Z,16.50
2017-07-02T18:19:32.642Z,16.50
2017-07-02T18:22:00.117Z,16.50
2017-07-02T18:24:27.613Z,16.50
2017-07-02T18:26:55.147Z,16.40
2017-07-02T18:29:22.661Z,16.50
2017-07-02T18:31:50.927Z,16.40
2017-07-02T18:34:19.182Z,16.40
2017-07-02T18:36:46.709Z,16.40
2017-07-02T18:39:14.222Z,16.40
2017-07-02T18:41:42.501Z,16.50
2017-07-02T18:44:10.873Z,16.40
2017-07-02T18:46:38.358Z,16.40
2017-07-02T18:49:05.881Z,16.40
2017-07-02T18:51:33.356Z,16.40
2017-07-02T18:54:01.614Z,16.40
2017-07-02T18:56:29.123Z,16.40
2017-07-02T18:58:56.626Z,16.40
2017-07-02T19:01:24.120Z,16.40
2017-07-02T19:03:53.461Z,16.30
2017-07-02T19:06:22.502Z,16.30
2017-07-02T19:08:51.152Z,16.30
2017-07-02T19:11:18.652Z,16.30
2017-07-02T19:13:46.153Z,16.30
2017-07-02T19:16:13.672Z,16.20
2017-07-02T19:18:41.138Z,16.20
2017-07-02T19:21:09.401Z,16.10
2017-07-02T19:23:36.912Z,16.00
2017-07-02T19:26:04.437Z,16.10
2017-07-02T19:28:32.681Z,16.10
2017-07-02T19:31:00.204Z,16.10
2017-07-02T19:33:27.739Z,16.10
2017-07-02T19:35:55.231Z,16.00
2017-07-02T19:38:22.727Z,16.00
2017-07-02T19:40:50.200Z,15.90
2017-07-02T19:43:18.534Z,15.70
2017-07-02T19:45:46.033Z,15.70
2017-07-02T19:48:14.321Z,15.40
2017-07-02T19:50:42.570Z,15.20
2017-07-02T19:53:10.070Z,15.20
2017-07-02T19:55:37.576Z,15.10
2017-07-02T19:58:05.054Z,15.00
2017-07-02T20:00:32.570Z,15.00
2017-07-02T20:03:00.061Z,15.10
2017-07-02T20:05:28.340Z,15.00
2017-07-02T20:07:55.894Z,15.00
2017-07-02T20:10:23.385Z,15.10
2017-07-02T20:12:51.635Z,15.00
2017-07-02T20:15:19.143Z,15.00
2017-07-02T20:17:46.623Z,15.00
2017-07-02T20:20:14.113Z,14.90
2017-07-02T20:22:41.620Z,14.90
2017-07-02T20:25:09.139Z,14.90
2017-07-02T20:27:36.639Z,15.00
2017-07-02T20:30:04.120Z,14.90
2017-07-02T20:32:31.633Z,15.00
2017-07-02T20:34:59.872Z,14.90
2017-07-02T20:37:27.398Z,14.90
2017-07-02T20:39:54.894Z,15.00
2017-07-02T20:42:22.380Z,15.00
2017-07-02T20:44:50.652Z,15.10
2017-07-02T20:47:18.891Z,15.00
2017-07-02T20:49:46.396Z,15.00
2017-07-02T20:52:14.655Z,14.90
2017-07-02T20:54:42.920Z,14.90
2017-07-02T20:57:10.458Z,14.90
2017-07-02T20:59:37.956Z,14.90
2017-07-02T21:02:06.224Z,14.90
2017-07-02T21:04:34.497Z,14.90
2017-07-02T21:07:01.985Z,14.90
2017-07-02T21:09:29.523Z,14.90
2017-07-02T21:11:57.006Z,14.90
2017-07-02T21:14:24.497Z,14.90
2017-07-02T21:16:51.978Z,14.80
2017-07-02T21:19:19.462Z,14.80
2017-07-02T21:21:47.736Z,14.80
2017-07-02T21:24:15.992Z,14.80
2017-07-02T21:26:43.528Z,14.80
2017-07-02T21:29:11.033Z,14.80
2017-07-02T21:31:39.313Z,14.60
2017-07-02T21:34:06.821Z,14.60
2017-07-02T21:36:34.336Z,14.50
2017-07-02T21:39:01.858Z,14.50
2017-07-02T21:41:29.348Z,14.40
2017-07-02T21:43:56.839Z,14.40
2017-07-02T21:46:25.090Z,14.40
2017-07-02T21:48:52.584Z,14.40
2017-07-02T21:51:20.070Z,14.40
2017-07-02T21:53:47.637Z,14.50
2017-07-02T21:56:15.123Z,14.50
2017-07-02T21:58:42.603Z,14.40
2017-07-02T22:01:10.889Z,14.40
2017-07-02T22:03:39.133Z,14.40
2017-07-02T22:06:06.659Z,14.50
2017-07-02T22:08:34.133Z,14.50
2017-07-02T22:11:01.824Z,14.50
2017-07-02T22:13:29.325Z,14.50
2017-07-02T22:15:56.809Z,14.50
2017-07-02T22:18:24.306Z,14.50
2017-07-02T22:20:52.571Z,14.50
2017-07-02T22:23:20.075Z,14.50
2017-07-02T22:25:47.578Z,14.50
2017-07-02T22:28:15.059Z,14.50
2017-07-02T22:30:42.553Z,14.50
2017-07-02T22:33:10.037Z,14.50
2017-07-02T22:35:37.529Z,14.50
2017-07-02T22:38:05.029Z,14.60
2017-07-02T22:40:32.504Z,14.50
2017-07-02T22:42:59.987Z,14.60
2017-07-02T22:45:27.480Z,14.50
2017-07-02T22:47:55.749Z,14.50
2017-07-02T22:50:24.024Z,14.50
2017-07-02T22:52:52.288Z,14.50
2017-07-02T22:55:19.761Z,14.50
2017-07-02T22:57:48.030Z,14.40
2017-07-02T23:00:15.538Z,14.40
2017-07-02T23:02:43.046Z,14.50
2017-07-02T23:05:11.311Z,14.40
2017-07-02T23:07:38.800Z,14.40
2017-07-02T23:10:07.040Z,14.30
2017-07-02T23:12:34.533Z,14.30
2017-07-02T23:15:02.779Z,14.40
2017-07-02T23:17:30.263Z,14.40
2017-07-02T23:19:58.578Z,14.50
2017-07-02T23:22:26.061Z,14.50
2017-07-02T23:24:53.539Z,14.50
2017-07-02T23:27:21.024Z,14.50
2017-07-02T23:29:48.500Z,14.50
2017-07-02T23:32:16.000Z,14.60
2017-07-02T23:34:43.530Z,14.50
2017-07-02T23:37:11.043Z,14.50
2017-07-02T23:39:39.276Z,14.50
2017-07-02T23:42:06.761Z,14.50
2017-07-02T23:44:34.264Z,14.60
2017-07-02T23:47:01.749Z,14.50
2017-07-02T23:49:29.245Z,14.50
2017-07-02T23:51:57.490Z,14.50
2017-07-02T23:54:24.985Z,14.40
2017-07-02T23:56:53.236Z,14.50
2017-07-02T23:59:20.713Z,14.50
